createdAt,value
2023-01-18T00:01:16.101Z,18.15
2023-01-18T00:03:44.882Z,22.17
2023-01-18T00:06:12.963Z,20.58
2023-01-18T00:08:42.604Z,21.25
2023-01-18T00:11:12.668Z,21.15
2023-01-18T00:13:41.032Z,22.58
2023-01-18T00:16:20.546Z,18.73
2023-01-18T00:18:55.732Z,22.98
2023-01-18T00:21:24.464Z,23.33
2023-01-18T00:23:52.638Z,20.98
2023-01-18T00:26:21.336Z,21.83
2023-01-18T00:28:49.258Z,21.27
2023-01-18T00:31:19.548Z,21.25
2023-01-18T00:33:51.242Z,21.58
2023-01-18T00:36:20.200Z,21.35
2023-01-18T00:38:54.417Z,20.80
2023-01-18T00:41:24.071Z,23.50
2023-01-18T00:43:53.089Z,23.77
2023-01-18T00:46:25.414Z,21.48
2023-01-18T00:48:54.346Z,20.25
2023-01-18T00:51:24.088Z,20.20
2023-01-18T00:53:52.108Z,22.70
2023-01-18T00:56:22.095Z,21.88
2023-01-18T00:58:51.252Z,23.60
2023-01-18T01:01:19.449Z,22.90
2023-01-18T01:04:06.420Z,22.10
2023-01-18T01:06:45.154Z,22.08
2023-01-18T01:09:19.036Z,21.45
2023-01-18T01:12:06.411Z,21.95
2023-01-18T01:14:57.908Z,21.23
2023-01-18T01:17:44.166Z,22.70
2023-01-18T01:23:33.395Z,23.10
2023-01-18T01:26:08.395Z,19.23
2023-01-18T01:28:40.797Z,23.17
2023-01-18T01:31:10.055Z,21.17
2023-01-18T01:33:38.066Z,21.52
2023-01-18T01:36:13.596Z,23.67
2023-01-18T01:38:41.613Z,22.10
2023-01-18T01:41:14.413Z,23.40
2023-01-18T01:43:46.297Z,22.70
2023-01-18T01:46:17.050Z,22.33
2023-01-18T01:48:45.023Z,22.58
2023-01-18T01:51:13.216Z,23.25
2023-01-18T01:53:41.455Z,22.20
2023-01-18T01:56:09.546Z,22.23
2023-01-18T01:58:38.623Z,22.77
2023-01-18T02:01:09.307Z,22.38
2023-01-18T02:03:39.395Z,23.05
2023-01-18T02:06:14.340Z,22.55
2023-01-18T02:08:43.648Z,22.35
2023-01-18T02:11:11.885Z,21.50
2023-01-18T02:13:39.969Z,22.88
2023-01-18T02:16:19.510Z,23.33
2023-01-18T02:19:32.589Z,22.40
2023-01-18T02:22:04.199Z,21.63
2023-01-18T02:24:44.696Z,21.73
2023-01-18T02:27:22.291Z,21.35
2023-01-18T02:30:02.217Z,22.27
2023-01-18T02:32:38.603Z,21.17
2023-01-18T02:35:14.614Z,22.30
2023-01-18T02:41:03.373Z,22.10
2023-01-18T02:43:50.927Z,22.25
2023-01-18T02:46:38.971Z,19.95
2023-01-18T02:49:12.591Z,20.77
2023-01-18T02:51:42.114Z,20.67
2023-01-18T02:54:10.416Z,21.38
2023-01-18T02:56:43.249Z,21.05
2023-01-18T02:59:30.103Z,21.50
2023-01-18T03:02:05.183Z,21.63
2023-01-18T03:04:36.510Z,20.67
2023-01-18T03:07:08.848Z,22.13
2023-01-18T03:09:37.222Z,21.98
2023-01-18T03:12:49.101Z,21.45
2023-01-18T03:15:27.031Z,20.88
2023-01-18T03:17:59.941Z,23.08
2023-01-18T03:20:30.676Z,20.30
2023-01-18T03:23:34.053Z,19.95
2023-01-18T03:26:02.332Z,19.73
2023-01-18T03:28:56.110Z,20.15
2023-01-18T03:31:56.529Z,19.75
2023-01-18T03:34:58.171Z,20.08
2023-01-18T03:37:41.723Z,19.83
2023-01-18T03:40:19.584Z,21.75
2023-01-18T03:43:09.719Z,20.58
2023-01-18T03:45:39.897Z,20.98
2023-01-18T03:48:08.684Z,21.45
2023-01-18T03:50:49.862Z,21.65
2023-01-18T03:53:40.529Z,20.25
2023-01-18T03:56:31.067Z,18.67
2023-01-18T03:59:00.472Z,19.58
2023-01-18T04:01:28.991Z,19.38
2023-01-18T04:04:16.887Z,18.85
2023-01-18T04:06:45.144Z,18.20
2023-01-18T04:09:15.984Z,18.00
2023-01-18T04:11:44.499Z,18.10
2023-01-18T04:14:12.452Z,18.92
2023-01-18T08:10:29.971Z,16.17
2023-01-18T08:12:58.990Z,18.50
2023-01-18T08:15:28.121Z,15.65
2023-01-18T08:17:57.370Z,17.20
2023-01-18T08:20:25.769Z,18.08
2023-01-18T08:22:57.989Z,17.25
2023-01-18T08:25:33.637Z,17.92
2023-01-18T08:28:03.343Z,17.25
2023-01-18T08:30:33.939Z,16.67
2023-01-18T08:33:05.173Z,16.42
2023-01-18T08:35:35.067Z,15.43
2023-01-18T08:38:04.873Z,16.80
2023-01-18T08:40:38.666Z,16.38
2023-01-18T08:43:06.793Z,15.23
2023-01-18T08:45:36.021Z,17.40
2023-01-18T08:48:09.731Z,15.20
2023-01-18T08:50:44.336Z,16.25
2023-01-18T08:53:13.689Z,15.93
2023-01-18T08:55:41.702Z,15.82
2023-01-18T08:58:10.468Z,14.15
2023-01-18T09:00:42.131Z,15.98
2023-01-18T09:03:18.105Z,15.35
2023-01-18T09:05:53.900Z,15.95
2023-01-18T09:08:24.846Z,16.38
2023-01-18T09:10:54.092Z,16.33
2023-01-18T09:13:23.706Z,14.73
2023-01-18T09:16:05.669Z,15.82
2023-01-18T09:18:34.090Z,15.52
2023-01-18T09:21:09.841Z,15.00
2023-01-18T09:23:49.345Z,15.73
2023-01-18T09:26:19.528Z,14.43
2023-01-18T09:28:53.389Z,15.70
2023-01-18T09:31:22.630Z,15.40
2023-01-18T09:33:53.844Z,16.77
2023-01-18T09:36:29.610Z,16.77
2023-01-18T09:38:57.592Z,17.05
2023-01-18T09:41:36.714Z,16.85
2023-01-18T09:44:18.125Z,17.30
2023-01-18T09:46:46.594Z,16.42
2023-01-18T09:49:20.627Z,17.30
2023-01-18T09:51:54.749Z,16.98
2023-01-18T09:54:58.410Z,18.35
2023-01-18T09:57:51.041Z,17.40
2023-01-18T10:00:23.009Z,16.60
2023-01-18T10:02:56.048Z,15.38
2023-01-18T10:05:25.888Z,16.02
2023-01-18T10:08:15.026Z,18.20
2023-01-18T10:10:51.707Z,17.05
2023-01-18T10:13:34.331Z,15.48
2023-01-18T10:16:03.432Z,15.68
2023-01-18T10:18:31.575Z,17.55
2023-01-18T10:21:01.906Z,16.05
2023-01-18T10:23:45.852Z,16.45
2023-01-18T10:26:26.450Z,14.90
2023-01-18T10:29:01.056Z,17.20
2023-01-18T10:31:40.844Z,16.83
2023-01-18T10:34:20.697Z,16.33
2023-01-18T10:36:55.861Z,16.90
2023-01-18T10:39:37.725Z,18.15
2023-01-18T10:42:33.149Z,18.67
2023-01-18T10:45:03.610Z,17.33
2023-01-18T10:47:34.250Z,17.35
2023-01-18T10:50:02.279Z,16.85
2023-01-18T10:52:31.784Z,17.25
2023-01-18T10:55:09.678Z,16.13
2023-01-18T10:57:42.590Z,15.07
2023-01-18T11:00:33.771Z,16.38
2023-01-18T11:03:04.993Z,17.08
2023-01-18T11:05:38.554Z,17.23
2023-01-18T11:08:31.625Z,16.60
2023-01-18T11:11:01.715Z,17.42
2023-01-18T11:13:42.663Z,15.48
2023-01-18T11:16:21.388Z,17.63
2023-01-18T11:19:02.157Z,17.35
2023-01-18T11:21:41.323Z,18.15
2023-01-18T11:24:15.618Z,18.15
2023-01-18T11:27:00.376Z,18.15
2023-01-18T11:29:39.900Z,19.38
2023-01-18T11:32:16.899Z,17.58
2023-01-18T11:34:49.169Z,17.50
2023-01-18T11:37:43.775Z,17.67
2023-01-18T11:40:30.584Z,18.60
2023-01-18T11:45:30.305Z,19.13
2023-01-18T11:48:13.768Z,19.65
2023-01-18T11:51:15.695Z,19.95
2023-01-18T16:19:50.400Z,19.95
2023-01-18T16:22:42.375Z,22.53
2023-01-18T16:25:21.101Z,18.40
2023-01-18T16:27:51.932Z,24.58
2023-01-18T16:30:22.718Z,21.70
2023-01-18T16:33:19.545Z,23.13
2023-01-18T16:35:53.169Z,22.52
2023-01-18T16:38:21.229Z,21.55
2023-01-18T16:40:50.072Z,20.60
2023-01-18T16:43:31.558Z,21.42
2023-01-18T16:45:59.484Z,20.77
2023-01-18T16:48:31.253Z,21.52
2023-01-18T16:51:01.350Z,20.65
2023-01-18T16:53:29.814Z,22.13
2023-01-18T16:57:15.163Z,20.98
2023-01-18T16:59:57.362Z,22.55
2023-01-18T17:02:25.754Z,22.67
2023-01-18T17:04:55.994Z,20.73
2023-01-18T17:07:26.637Z,17.10
2023-01-18T17:10:26.251Z,21.13
2023-01-18T17:13:00.363Z,21.20
2023-01-18T17:15:31.455Z,20.05
2023-01-18T17:18:26.614Z,22.15
2023-01-18T17:20:59.924Z,21.83
2023-01-18T17:24:12.032Z,21.58
2023-01-18T17:26:40.681Z,22.73
2023-01-18T17:29:08.951Z,22.30
2023-01-18T17:31:48.036Z,21.95
2023-01-18T17:34:27.240Z,20.42
2023-01-18T17:36:58.554Z,18.02
2023-01-18T17:39:42.730Z,21.63
2023-01-18T17:42:22.921Z,21.35
2023-01-18T17:45:03.889Z,22.73
2023-01-18T17:48:12.657Z,22.63
2023-01-18T17:51:47.007Z,20.45
2023-01-18T17:54:24.199Z,18.58
2023-01-18T17:56:53.630Z,22.48
2023-01-18T17:59:21.693Z,21.20
2023-01-18T18:01:54.711Z,18.50
2023-01-18T18:04:24.988Z,21.08
2023-01-18T18:06:58.562Z,20.30
2023-01-18T18:09:28.535Z,21.92
2023-01-18T18:11:57.466Z,22.55
2023-01-18T18:14:29.984Z,22.00
2023-01-18T18:16:59.378Z,20.35
2023-01-18T18:19:29.303Z,20.88
2023-01-18T18:21:58.586Z,20.63
2023-01-18T18:24:26.788Z,20.13
2023-01-18T18:27:08.477Z,20.23
2023-01-18T18:29:37.436Z,19.40
2023-01-18T18:32:10.285Z,20.50
2023-01-18T18:34:38.885Z,15.90
2023-01-18T18:37:08.422Z,19.52
2023-01-18T18:39:40.406Z,18.88
2023-01-18T18:42:12.158Z,17.02
2023-01-18T18:44:40.363Z,17.65
2023-01-18T18:47:10.103Z,18.33
2023-01-18T18:49:38.372Z,17.35
2023-01-18T18:52:06.432Z,17.95
2023-01-18T18:54:34.776Z,17.77
2023-01-18T18:57:05.921Z,17.70
2023-01-18T18:59:34.075Z,17.75
2023-01-18T19:02:02.362Z,18.75
2023-01-18T19:04:31.844Z,18.40
2023-01-18T19:07:00.810Z,20.73
2023-01-18T19:09:29.116Z,15.90
2023-01-18T19:11:59.606Z,17.48
2023-01-18T19:14:27.641Z,16.88
2023-01-18T19:16:57.054Z,16.92
2023-01-18T19:19:26.851Z,17.33
2023-01-18T19:21:55.031Z,17.52
2023-01-18T19:24:49.920Z,19.77
2023-01-18T19:27:17.935Z,16.25
2023-01-18T19:30:12.878Z,18.98
2023-01-18T19:32:48.185Z,18.08
2023-01-18T19:35:20.153Z,17.52
2023-01-18T19:37:48.307Z,18.27
2023-01-18T19:40:19.775Z,19.63
2023-01-18T19:42:54.510Z,17.35
2023-01-18T19:45:30.591Z,19.73
2023-01-18T19:48:10.160Z,15.85
2023-01-18T19:50:38.876Z,20.40
2023-01-18T19:53:06.799Z,19.30
2023-01-18T19:55:39.958Z,19.75
2023-01-18T19:58:10.242Z,20.13
2023-01-18T20:01:01.262Z,19.90
2023-01-18T20:03:34.959Z,18.48
2023-01-18T20:06:09.510Z,18.63
2023-01-18T20:08:38.388Z,19.30
2023-01-18T20:11:14.211Z,18.98
2023-01-18T20:13:47.496Z,20.38
2023-01-18T20:16:15.531Z,18.33
2023-01-18T20:18:45.996Z,18.80
2023-01-18T20:21:15.181Z,20.80
2023-01-18T20:23:45.551Z,19.52
2023-01-18T20:26:20.044Z,22.00
2023-01-18T20:28:54.694Z,19.17
2023-01-18T20:31:24.947Z,18.35
2023-01-18T20:33:53.658Z,18.98
2023-01-18T20:36:21.533Z,18.35
2023-01-18T20:38:54.559Z,18.35
2023-01-18T20:41:24.146Z,17.00
2023-01-18T20:43:53.067Z,18.42
2023-01-18T20:46:21.820Z,18.90
2023-01-18T20:48:51.039Z,17.23
2023-01-18T20:51:19.199Z,19.52
2023-01-18T20:53:50.141Z,17.92
2023-01-18T20:56:34.817Z,16.95
2023-01-18T20:59:03.557Z,18.45
2023-01-18T21:01:33.081Z,18.77
2023-01-18T21:04:06.448Z,18.83
2023-01-18T21:06:35.161Z,18.88
2023-01-18T21:09:05.711Z,18.88
2023-01-18T21:11:37.970Z,18.77
2023-01-18T21:14:06.214Z,19.38
2023-01-18T21:16:35.629Z,17.08
2023-01-18T21:19:03.655Z,17.90
